Time;durP1;ratioP1;P1;durP2;ratioP2;P2;SDS_P1;SDS_P2;PMS_P1;PMS_P2;Temp;Humidity;BMP_temperature;BMP_pressure;BME280_temperature;BME280_humidity;BME280_pressure;Samples;Min_cycle;Max_cycle;Signal;HPM_P1;HPM_P2
2021/01/12 00:00:55;;;;;;;;;;;;;;;1.76;79.95;94514.56;4186680;28;19968;-69
2021/01/12 00:02:57;;;;;;;;;;;;;;;1.67;79.94;94523.00;4190621;28;20043;-69
2021/01/12 00:04:58;;;;;;;;;;;;;;;1.59;80.19;94533.03;4172507;28;20404;-69
2021/01/12 00:06:59;;;;;;;;;;;;;;;1.70;80.09;94533.13;4197670;28;19927;-69
2021/01/12 00:09:00;;;;;;;;;;;;;;;1.74;79.43;94513.88;4175408;28;19920;-69
2021/01/12 00:11:01;;;;;;;;;;;;;;;1.66;80.19;94494.69;4176640;28;19925;-68
2021/01/12 00:13:02;;;;;;;;;;;;;;;1.75;79.38;94501.78;4202087;28;19920;-68
2021/01/12 00:15:04;;;;;;;;;;;;;;;1.84;79.86;94485.63;4192248;28;20095;-68
2021/01/12 00:17:06;;;;;;;;;;;;;;;1.94;79.93;94509.03;4193572;28;20014;-69
2021/01/12 00:19:08;;;;;;;;;;;;;;;1.72;79.29;94522.66;4191845;28;20377;-70
2021/01/12 00:21:09;;;;;;;;;;;;;;;1.70;79.81;94522.78;4206711;28;20289;-68
2021/01/12 00:23:10;;;;;;;;;;;;;;;1.82;80.18;94508.97;4209733;28;19993;-69
2021/01/12 00:25:11;;;;;;;;;;;;;;;1.97;80.25;94506.22;4180327;28;19932;-70
2021/01/12 00:27:27;;;;;;;;;;;;;;;2.05;79.20;94496.97;4195234;28;19924;-72
2021/01/12 00:29:28;;;;;;;;;;;;;;;2.02;79.15;94483.44;4204426;28;19924;-68
2021/01/12 00:31:29;;;;;;;;;;;;;;;2.07;79.57;94470.22;4194024;28;19973;-69
2021/01/12 00:33:30;;;;;;;;;;;;;;;2.07;78.98;94465.88;4171658;28;19982;-77
2021/01/12 00:35:31;;;;;;;;;;;;;;;1.98;79.30;94475.13;4188664;28;20339;-76
2021/01/12 00:55:56;;;;;;;20.77;13.35;;;;;;;1.70;82.65;94489.22;4162838;28;20732;-82
2021/01/12 00:57:58;;;;;;;21.23;12.73;;;;;;;1.89;81.60;94473.19;4161312;28;20057;-82
2021/01/12 00:59:59;;;;;;;20.50;11.93;;;;;;;2.02;80.72;94475.69;4129536;28;20046;-82
2021/01/12 01:02:02;;;;;;;19.15;10.75;;;;;;;1.88;80.70;94473.31;4149188;28;20045;-82
2021/01/12 01:04:04;;;;;;;22.13;11.73;;;;;;;1.83;81.72;94469.31;4154306;28;20061;-83
2021/01/12 01:06:06;;;;;;;16.33;10.10;;;;;;;1.80;81.15;94463.53;4150420;28;20129;-83
2021/01/12 01:08:07;;;;;;;15.63;10.98;;;;;;;1.46;82.47;94457.41;4128637;28;20051;-82
2021/01/12 01:10:09;;;;;;;26.20;11.15;;;;;;;1.53;82.52;94469.75;4145901;28;20502;-82
2021/01/12 01:12:12;;;;;;;17.88;10.93;;;;;;;1.50;82.82;94467.38;4159811;28;20512;-82
2021/01/12 01:14:15;;;;;;;20.45;11.50;;;;;;;1.40;82.83;94463.84;4150625;28;20046;-82
2021/01/12 01:16:16;;;;;;;24.88;12.82;;;;;;;1.28;83.84;94469.88;4157729;28;20115;-83
2021/01/12 01:18:17;;;;;;;22.75;11.75;;;;;;;1.11;84.49;94474.44;4148860;28;20112;-84
2021/01/12 01:20:19;;;;;;;19.42;11.68;;;;;;;1.20;84.63;94471.22;4163110;28;20049;-82
2021/01/12 01:22:23;;;;;;;15.98;12.10;;;;;;;1.13;85.05;94476.91;4156491;28;20070;-83
2021/01/12 01:24:24;;;;;;;23.70;15.00;;;;;;;0.90;85.86;94478.50;4145257;28;20409;-81
2021/01/12 01:26:26;;;;;;;22.92;14.32;;;;;;;1.11;85.60;94483.94;4145358;28;20497;-83
2021/01/12 01:28:27;;;;;;;20.52;12.70;;;;;;;1.25;85.27;94493.28;4146997;28;20502;-82
2021/01/12 01:30:28;;;;;;;25.88;14.43;;;;;;;1.05;85.20;94485.19;4128911;28;20058;-83
2021/01/12 01:32:29;;;;;;;25.33;14.85;;;;;;;1.10;85.12;94471.97;4143474;28;20136;-84
2021/01/12 01:34:31;;;;;;;27.60;14.55;;;;;;;1.11;85.48;94482.19;4157026;28;20042;-83
2021/01/12 01:36:32;;;;;;;22.08;13.35;;;;;;;1.20;85.28;94481.53;4148239;28;20101;-82
2021/01/12 01:38:33;;;;;;;19.45;12.82;;;;;;;1.36;84.67;94476.13;4151660;28;20053;-82
2021/01/12 01:40:34;;;;;;;22.90;12.82;;;;;;;1.58;83.90;94480.56;4147728;28;20074;-82
2021/01/12 01:42:36;;;;;;;22.25;11.63;;;;;;;1.68;83.19;94474.75;4129174;28;20487;-83
2021/01/12 01:44:37;;;;;;;22.73;11.73;;;;;;;1.82;82.47;94482.31;4145839;28;20056;-83
2021/01/12 01:46:42;;;;;;;18.25;11.35;;;;;;;1.89;82.09;94483.50;4147231;28;20050;-84
2021/01/12 01:48:46;;;;;;;18.40;11.15;;;;;;;1.97;82.06;94457.13;4143910;28;20053;-84
2021/01/12 01:50:48;;;;;;;19.52;10.32;;;;;;;2.07;81.26;94445.19;4162380;28;20152;-83
2021/01/12 01:52:50;;;;;;;16.98;10.38;;;;;;;2.17;80.95;94445.31;4155335;28;20072;-85
2021/01/12 01:54:55;;;;;;;16.77;10.77;;;;;;;2.15;80.88;94458.38;4144109;28;20049;-83
2021/01/12 01:56:59;;;;;;;17.33;10.65;;;;;;;2.20;80.74;94450.28;4135025;28;20060;-81
2021/01/12 01:59:00;;;;;;;15.13;9.82;;;;;;;2.27;80.40;94445.47;4134279;28;20145;-83
2021/01/12 02:01:01;;;;;;;16.45;10.13;;;;;;;2.29;80.06;94433.25;4135252;28;20054;-83
2021/01/12 02:03:42;;;;;;;15.43;10.38;;;;;;;2.32;80.37;94443.34;4132880;28;20117;-71
2021/01/12 02:05:56;;;;;;;18.05;9.82;;;;;;;2.38;80.13;94433.38;4117880;28;20418;-71
2021/01/12 02:07:59;;;;;;;17.83;10.18;;;;;;;2.38;80.06;94419.63;4141213;28;20434;-73
2021/01/12 02:10:01;;;;;;;16.60;9.57;;;;;;;2.35;79.60;94417.28;4131335;28;20047;-72
2021/01/12 02:12:07;;;;;;;17.98;9.95;;;;;;;2.35;80.05;94404.34;4124525;28;20514;-72
2021/01/12 02:14:14;;;;;;;16.23;10.27;;;;;;;2.38;79.93;94402.34;4142406;28;20368;-73
2021/01/12 02:16:16;;;;;;;16.45;10.05;;;;;;;2.45;79.56;94388.03;4128916;28;20051;-71
2021/01/12 02:18:18;;;;;;;17.77;10.93;;;;;;;2.50;79.37;94392.03;4130158;28;20061;-71
2021/01/12 02:20:22;;;;;;;16.27;9.50;;;;;;;2.53;79.27;94391.78;4131054;28;20050;-71
2021/01/12 02:22:24;;;;;;;18.98;10.93;;;;;;;2.53;79.48;94390.00;4130631;28;20101;-69
2021/01/12 02:24:26;;;;;;;21.92;10.68;;;;;;;2.42;79.22;94390.00;4128975;28;20101;-70
2021/01/12 02:26:27;;;;;;;19.08;10.48;;;;;;;2.39;79.62;94387.69;4128249;28;20056;-70
2021/01/12 02:28:28;;;;;;;20.73;11.05;;;;;;;2.34;79.71;94375.06;4131494;28;20426;-72
2021/01/12 02:30:29;;;;;;;21.70;11.10;;;;;;;2.24;79.90;94380.13;4127797;28;20054;-70
2021/01/12 02:32:31;;;;;;;17.77;11.05;;;;;;;2.14;80.95;94376.59;4127144;28;20058;-70
2021/01/12 02:34:32;;;;;;;26.52;12.73;;;;;;;2.05;81.36;94379.88;4127300;28;20038;-71
2021/01/12 02:36:34;;;;;;;19.15;11.05;;;;;;;2.08;81.60;94378.81;4132884;28;20121;-71
2021/01/12 02:38:36;;;;;;;22.58;10.93;;;;;;;2.16;81.34;94372.13;4112497;28;20061;-71
2021/01/12 02:40:37;;;;;;;23.17;11.52;;;;;;;2.24;81.09;94369.81;4116513;28;20120;-71
2021/01/12 02:42:41;;;;;;;18.48;10.48;;;;;;;2.26;80.56;94369.69;4130858;28;20077;-71
2021/01/12 02:44:42;;;;;;;;;;;;;;;2.28;80.68;94362.66;4133277;28;20046;-84
2021/01/12 02:46:44;;;;;;;20.08;11.85;;;;;;;2.31;80.62;94362.41;4132276;28;19928;-71
2021/01/12 02:48:45;;;;;;;28.85;12.32;;;;;;;2.39;80.65;94361.81;4128741;28;20062;-69
2021/01/12 02:50:46;;;;;;;21.52;12.48;;;;;;;2.44;80.60;94344.19;4125685;28;20074;-72
2021/01/12 02:52:47;;;;;;;23.90;12.05;;;;;;;2.50;80.49;94355.81;4112971;28;20130;-71
2021/01/12 02:54:49;;;;;;;23.90;13.48;;;;;;;2.54;80.62;94350.28;4120167;28;20061;-82
2021/01/12 02:56:50;;;;;;;24.65;12.57;;;;;;;2.61;80.22;94355.81;4132598;28;20061;-82
2021/01/12 02:58:51;;;;;;;22.85;12.80;;;;;;;2.70;79.74;94349.09;4133751;28;20118;-83
2021/01/12 03:00:53;;;;;;;26.08;13.65;;;;;;;2.38;79.85;94348.06;4118020;28;20051;-82
2021/01/12 03:02:54;;;;;;;30.20;16.00;;;;;;;1.78;82.31;94362.09;4135063;28;20557;-81
2021/01/12 03:04:55;;;;;;;26.08;14.95;;;;;;;1.73;83.48;94364.22;4132724;28;20073;-82
2021/01/12 03:06:56;;;;;;;24.25;15.23;;;;;;;1.88;83.15;94363.06;4138899;28;20434;-83
2021/01/12 03:08:57;;;;;;;29.48;15.80;;;;;;;2.01;82.53;94356.03;4128587;28;20055;-83
2021/01/12 03:10:59;;;;;;;27.55;16.17;;;;;;;1.57;83.38;94354.16;4134164;28;20054;-83
2021/01/12 03:13:00;;;;;;;28.90;17.15;;;;;;;1.29;85.34;94360.53;4132024;28;20141;-84
2021/01/12 03:15:01;;;;;;;29.95;17.40;;;;;;;0.98;86.64;94368.72;4133269;28;20423;-82
2021/01/12 03:17:02;;;;;;;23.90;15.50;;;;;;;0.77;87.23;94365.91;4131855;28;20050;-83
2021/01/12 03:19:04;;;;;;;24.95;14.57;;;;;;;0.74;87.43;94362.72;4116190;28;20082;-82
2021/01/12 03:21:06;;;;;;;26.00;14.27;;;;;;;0.86;88.06;94355.88;4132074;28;20050;-84
2021/01/12 03:23:07;;;;;;;22.63;13.25;;;;;;;0.90;86.88;94354.72;4132089;28;20434;-82
2021/01/12 03:25:09;;;;;;;20.98;12.32;;;;;;;0.86;86.62;94359.28;4131786;28;20133;-83
2021/01/12 03:27:10;;;;;;;18.52;10.88;;;;;;;0.67;86.97;94354.59;4132017;28;20050;-84
2021/01/12 03:29:11;;;;;;;30.48;11.98;;;;;;;0.45;87.74;94359.59;4132084;28;20136;-85
2021/01/12 03:31:13;;;;;;;23.42;11.77;;;;;;;0.26;88.67;94366.03;4131797;28;20058;-83
2021/01/12 03:33:14;;;;;;;19.52;12.52;;;;;;;0.29;88.94;94357.25;4132110;28;20054;-84
2021/01/12 03:35:15;;;;;;;20.15;13.10;;;;;;;0.27;89.21;94365.09;4132054;28;20054;-83
2021/01/12 03:37:17;;;;;;;21.63;13.30;;;;;;;0.31;89.03;94355.41;4136397;28;20058;-82
2021/01/12 03:39:18;;;;;;;21.05;12.85;;;;;;;0.48;88.91;94352.47;4142885;28;20058;-83
2021/01/12 03:41:19;;;;;;;20.23;10.35;;;;;;;0.44;87.63;94348.47;4133844;28;20086;-83
2021/01/12 03:43:21;;;;;;;15.93;10.70;;;;;;;0.52;87.57;94342.78;4131931;28;20410;-84
2021/01/12 03:45:22;;;;;;;16.45;11.30;;;;;;;0.50;87.87;94344.66;4131186;28;20046;-84
2021/01/12 03:47:24;;;;;;;24.55;11.23;;;;;;;0.48;88.05;94347.31;4101973;28;20055;-83
2021/01/12 03:49:25;;;;;;;17.63;10.65;;;;;;;0.55;87.43;94340.81;4120639;28;20154;-84
2021/01/12 03:51:27;;;;;;;19.27;10.93;;;;;;;0.68;87.21;94337.38;4143810;28;20109;-83
2021/01/12 03:53:28;;;;;;;19.02;9.70;;;;;;;0.68;86.77;94334.78;4132423;28;20056;-83
2021/01/12 03:55:30;;;;;;;16.42;9.93;;;;;;;0.83;86.57;94333.72;4124297;28;20054;-84
2021/01/12 03:57:31;;;;;;;16.27;9.50;;;;;;;0.98;86.16;94336.94;4135919;28;20065;-83
2021/01/12 03:59:32;;;;;;;16.35;9.63;;;;;;;0.99;85.94;94328.25;4143253;28;20064;-85
2021/01/12 04:01:34;;;;;;;15.63;10.30;;;;;;;1.07;85.17;94319.97;4137050;28;20104;-82
2021/01/12 04:03:35;;;;;;;15.52;9.73;;;;;;;1.20;85.53;94316.38;4103144;28;20047;-71
2021/01/12 04:05:39;;;;;;;18.67;10.65;;;;;;;1.35;85.29;94324.78;4133431;28;20517;-71
2021/01/12 04:07:41;;;;;;;20.58;10.90;;;;;;;1.19;84.51;94319.91;4127608;28;20054;-72
2021/01/12 04:09:42;;;;;;;15.05;9.93;;;;;;;1.20;85.01;94320.72;4127124;28;20062;-71
2021/01/12 04:11:44;;;;;;;14.95;9.63;;;;;;;1.11;84.38;94331.72;4119598;28;20065;-81
2021/01/12 04:13:45;;;;;;;16.02;10.43;;;;;;;1.12;84.94;94312.72;4132540;28;20065;-82
2021/01/12 04:15:47;;;;;;;13.25;8.77;;;;;;;1.13;84.84;94302.31;4114526;28;20050;-83
2021/01/12 04:17:48;;;;;;;12.63;8.25;;;;;;;1.24;84.77;94296.34;4115215;28;20524;-84
2021/01/12 04:19:49;;;;;;;13.85;8.45;;;;;;;1.44;84.63;94281.97;4133259;28;20061;-85
2021/01/12 04:21:50;;;;;;;14.40;8.70;;;;;;;1.63;83.73;94282.28;4134697;28;20051;-86
2021/01/12 04:23:52;;;;;;;14.93;7.80;;;;;;;1.78;82.40;94275.09;4115802;28;20059;-82
2021/01/12 04:25:53;;;;;;;12.68;8.85;;;;;;;1.82;81.88;94281.69;4131260;28;20604;-83
2021/01/12 04:27:54;;;;;;;13.05;7.05;;;;;;;1.77;81.88;94299.28;4114675;28;20054;-71
2021/01/12 04:29:55;;;;;;;13.07;7.85;;;;;;;1.79;81.81;94306.94;4125144;28;20058;-69
2021/01/12 04:31:57;;;;;;;12.57;7.88;;;;;;;1.56;82.33;94296.56;4132591;28;20054;-84
2021/01/12 04:33:58;;;;;;;13.43;8.48;;;;;;;1.27;83.52;94280.66;4145981;28;20291;-82
2021/01/12 04:35:59;;;;;;;14.82;9.32;;;;;;;1.36;83.60;94279.97;4139353;28;20081;-83
2021/01/12 04:38:01;;;;;;;13.05;8.75;;;;;;;1.52;83.65;94277.06;4131044;28;20054;-83
2021/01/12 04:40:03;;;;;;;11.68;7.85;;;;;;;1.64;82.40;94278.75;4131996;28;20046;-83
2021/01/12 04:42:08;;;;;;;12.50;8.32;;;;;;;1.75;82.29;94290.84;4120517;28;20078;-83
2021/01/12 04:44:09;;;;;;;13.45;7.80;;;;;;;1.86;82.39;94289.22;4131410;28;20085;-82
2021/01/12 04:46:10;;;;;;;13.00;8.38;;;;;;;1.98;81.81;94307.19;4131435;28;20590;-81
2021/01/12 04:48:12;;;;;;;10.82;7.40;;;;;;;1.91;80.45;94306.00;4138939;28;20054;-84
2021/01/12 04:50:13;;;;;;;11.05;7.78;;;;;;;1.69;81.71;94287.91;4138898;28;20093;-82
2021/01/12 04:52:14;;;;;;;13.57;8.32;;;;;;;1.44;82.73;94300.03;4115692;28;20055;-82
2021/01/12 04:54:16;;;;;;;13.35;8.70;;;;;;;1.37;83.05;94329.81;4133025;28;20133;-70
2021/01/12 04:56:19;;;;;;;14.20;8.63;;;;;;;0.82;84.55;94316.59;4124741;28;20097;-71
2021/01/12 04:58:20;;;;;;;12.32;9.27;;;;;;;0.89;85.64;94299.75;4129771;28;20130;-72
2021/01/12 05:00:25;;;;;;;12.75;8.73;;;;;;;1.04;85.95;94284.09;4124288;28;20042;-71
2021/01/12 05:02:27;;;;;;;12.90;8.05;;;;;;;1.30;85.02;94308.81;4127475;28;20109;-71
2021/01/12 05:04:28;;;;;;;13.38;8.77;;;;;;;1.43;84.06;94301.00;4128202;28;20050;-70
2021/01/12 05:06:30;;;;;;;13.93;9.88;;;;;;;1.40;83.15;94290.91;4128324;28;20057;-70
2021/01/12 05:08:31;;;;;;;22.65;13.88;;;;;;;1.20;83.72;94313.81;4130244;28;20125;-70
2021/01/12 05:10:35;;;;;;;19.90;12.65;;;;;;;1.33;84.17;94318.09;4127235;28;20050;-71
2021/01/12 05:12:40;;;;;;;16.50;12.68;;;;;;;1.49;83.96;94307.47;4127218;28;20057;-71
2021/01/12 05:14:41;;;;;;;18.25;12.70;;;;;;;1.73;83.33;94299.66;4118912;28;20046;-71
2021/01/12 05:16:47;;;;;;;18.65;12.90;;;;;;;1.86;82.14;94296.97;4129269;28;20050;-72
2021/01/12 05:18:50;;;;;;;20.27;13.38;;;;;;;1.98;81.81;94289.09;4107905;28;20066;-72
2021/01/12 05:20:55;;;;;;;24.13;14.27;;;;;;;1.89;80.87;94283.81;4106938;28;20055;-71
2021/01/12 05:23:10;;;;;;;15.07;10.30;;;;;;;1.59;81.24;94283.44;4125515;28;20046;-71
2021/01/12 05:25:19;;;;;;;17.55;11.82;;;;;;;1.02;83.21;94279.88;4132538;28;20049;-71
2021/01/12 05:27:22;;;;;;;20.55;13.75;;;;;;;0.87;84.34;94277.59;4127224;28;20057;-73
2021/01/12 05:29:23;;;;;;;17.75;12.70;;;;;;;0.95;83.83;94270.94;4123844;28;20563;-72
2021/01/12 05:31:26;;;;;;;15.77;11.10;;;;;;;0.96;83.35;94269.19;4129984;28;20058;-71
2021/01/12 05:33:28;;;;;;;28.65;18.88;;;;;;;1.07;83.55;94264.03;4122197;28;20042;-72
2021/01/12 05:35:30;;;;;;;15.98;11.13;;;;;;;1.13;82.63;94261.03;4114054;28;20508;-72
2021/01/12 05:37:33;;;;;;;16.77;11.27;;;;;;;1.13;82.66;94258.44;4126151;28;20057;-71
2021/01/12 05:39:43;;;;;;;13.60;10.68;;;;;;;1.09;82.84;94276.84;4136675;28;20046;-83
2021/01/12 05:41:46;;;;;;;16.00;11.18;;;;;;;1.06;82.91;94285.63;4119863;28;20049;-84
2021/01/12 05:43:52;;;;;;;17.40;11.35;;;;;;;0.94;84.00;94283.94;4130047;28;20050;-83
2021/01/12 05:46:11;;;;;;;15.05;10.93;;;;;;;0.76;84.67;94281.75;4134449;28;20101;-83
2021/01/12 05:48:19;;;;;;;17.45;11.93;;;;;;;0.84;84.65;94280.38;4133853;28;20050;-85
2021/01/12 05:50:32;;;;;;;16.80;11.10;;;;;;;0.98;83.73;94273.28;4119362;28;20055;-85
2021/01/12 05:52:43;;;;;;;15.70;10.02;;;;;;;0.84;84.13;94290.69;4118112;28;20061;-82
2021/01/12 05:55:05;;;;;;;15.23;10.13;;;;;;;0.85;84.59;94287.19;4133810;28;20138;-84
2021/01/12 05:57:07;;;;;;;14.82;11.32;;;;;;;0.79;84.53;94278.13;4133678;28;20053;-83
2021/01/12 05:59:16;;;;;;;17.15;12.80;;;;;;;0.63;84.96;94275.84;4119334;28;20082;-84
2021/01/12 06:01:46;;;;;;;16.83;11.52;;;;;;;0.60;85.68;94271.72;4129297;28;20133;-84
2021/01/12 06:03:48;;;;;;;17.73;10.63;;;;;;;0.48;85.61;94261.47;4118488;28;20054;-85
2021/01/12 06:05:55;;;;;;;28.40;18.33;;;;;;;0.59;86.15;94259.75;4137225;28;20400;-84
2021/01/12 06:08:15;;;;;;;18.52;12.32;;;;;;;0.70;85.27;94261.56;4142730;28;20050;-83
2021/01/12 06:10:18;;;;;;;15.23;11.32;;;;;;;0.90;84.99;94260.13;4142306;28;20042;-81
2021/01/12 06:12:23;;;;;;;18.35;13.25;;;;;;;1.12;84.33;94269.72;4144326;28;20102;-83
2021/01/12 06:14:28;;;;;;;22.27;15.00;;;;;;;1.29;84.02;94267.63;4150952;28;20045;-83
2021/01/12 06:16:34;;;;;;;22.13;15.07;;;;;;;1.45;83.03;94282.81;4118483;28;20051;-72
2021/01/12 06:18:42;;;;;;;26.10;15.82;;;;;;;1.16;82.63;94283.19;4120867;28;20594;-71
2021/01/12 06:20:55;;;;;;;26.50;15.73;;;;;;;1.25;83.54;94271.38;4133542;28;20558;-83
2021/01/12 06:23:05;;;;;;;27.13;17.25;;;;;;;1.18;82.78;94256.38;4135486;28;20134;-82
2021/01/12 06:25:08;;;;;;;24.77;15.52;;;;;;;1.25;83.32;94258.47;4128527;28;20069;-86
2021/01/12 06:27:18;;;;;;;23.17;15.80;;;;;;;1.37;83.28;94263.53;4106154;28;20058;-72
2021/01/12 06:29:22;;;;;;;23.38;15.15;;;;;;;1.50;82.60;94257.47;4136879;28;20476;-71
2021/01/12 06:31:23;;;;;;;21.10;11.57;;;;;;;1.39;82.29;94229.88;4125148;28;20055;-71
2021/01/12 06:33:31;;;;;;;18.52;13.02;;;;;;;1.39;82.80;94237.63;4125543;28;20529;-71
2021/01/12 06:35:45;;;;;;;21.55;13.30;;;;;;;1.46;82.78;94238.81;4124367;28;20098;-71
2021/01/12 06:37:50;;;;;;;19.83;11.18;;;;;;;1.59;82.19;94234.38;4129749;28;20054;-73
2021/01/12 06:39:53;;;;;;;16.08;9.73;;;;;;;1.37;82.76;94229.19;4122270;28;20145;-72
2021/01/12 06:42:04;;;;;;;14.38;9.80;;;;;;;1.39;83.22;94235.03;4115850;28;20438;-72
2021/01/12 06:44:20;;;;;;;15.00;9.60;;;;;;;1.33;82.89;94240.66;4128456;28;20142;-72
2021/01/12 06:46:25;;;;;;;14.55;11.43;;;;;;;1.21;83.37;94255.31;4133386;28;20772;-84
2021/01/12 06:48:28;;;;;;;13.45;9.65;;;;;;;1.12;83.14;94248.22;4133335;28;20145;-83
2021/01/12 06:50:31;;;;;;;15.45;10.10;;;;;;;0.88;83.97;94245.69;4117266;28;20062;-84
2021/01/12 06:52:45;;;;;;;19.52;11.18;;;;;;;0.72;84.27;94238.25;4132302;28;20054;-71
2021/01/12 06:54:48;;;;;;;15.05;10.00;;;;;;;0.76;84.80;94226.78;4116488;28;20082;-72
2021/01/12 06:57:00;;;;;;;14.20;9.50;;;;;;;0.79;84.14;94224.78;4123324;28;20138;-71
2021/01/12 06:59:12;;;;;;;13.88;9.25;;;;;;;0.92;84.79;94247.94;4128981;28;20054;-72
2021/01/12 07:01:21;;;;;;;12.90;8.73;;;;;;;0.89;83.97;94252.50;4128823;28;20495;-71
2021/01/12 07:03:28;;;;;;;13.38;10.02;;;;;;;0.69;84.06;94259.09;4124329;28;20055;-71
2021/01/12 07:05:40;;;;;;;12.10;9.43;;;;;;;0.49;85.26;94257.94;4121992;28;20069;-71
2021/01/12 07:07:42;;;;;;;16.27;11.05;;;;;;;0.48;86.00;94253.72;4133095;28;20054;-87
2021/01/12 07:09:45;;;;;;;13.45;10.65;;;;;;;0.38;86.31;94251.78;4135830;28;20098;-86
2021/01/12 07:11:47;;;;;;;16.80;11.10;;;;;;;0.37;87.28;94244.19;4135036;28;20108;-85
2021/01/12 07:13:51;;;;;;;16.77;12.45;;;;;;;0.30;87.19;94232.66;4134054;28;20051;-86
2021/01/12 07:15:54;;;;;;;16.10;11.48;;;;;;;0.51;86.79;94241.44;4134222;28;20073;-73
2021/01/12 07:18:05;;;;;;;18.85;11.57;;;;;;;0.78;86.13;94261.84;4136751;28;20085;-72
2021/01/12 07:20:08;;;;;;;11.90;8.38;;;;;;;0.98;84.79;94252.66;4128277;28;20050;-71
2021/01/12 07:22:18;;;;;;;13.32;9.73;;;;;;;1.05;84.47;94244.47;4128935;28;20057;-72
2021/01/12 07:24:23;;;;;;;17.80;12.80;;;;;;;1.14;84.26;94244.63;4120878;28;20546;-74
2021/01/12 07:26:24;;;;;;;19.25;10.93;;;;;;;1.32;84.46;94246.78;4109237;28;20142;-72
2021/01/12 07:28:26;;;;;;;13.60;9.98;;;;;;;1.26;82.68;94235.13;4116859;28;20054;-73
2021/01/12 07:30:30;;;;;;;18.42;11.45;;;;;;;1.10;83.72;94248.38;4124263;28;20097;-71
2021/01/12 07:32:38;;;;;;;13.73;9.65;;;;;;;1.09;83.60;94253.63;4103853;28;20134;-73
2021/01/12 07:34:39;;;;;;;10.48;7.82;;;;;;;1.07;83.46;94247.75;4114016;28;20050;-71
2021/01/12 07:36:41;;;;;;;10.30;7.72;;;;;;;1.13;83.40;94268.75;4137819;28;20050;-71
2021/01/12 07:38:43;;;;;;;9.48;7.40;;;;;;;1.28;83.48;94274.56;4129814;28;20522;-71
2021/01/12 07:40:45;;;;;;;10.55;7.35;;;;;;;1.37;82.81;94253.22;4129657;28;20424;-71
2021/01/12 07:42:57;;;;;;;11.90;6.95;;;;;;;1.16;83.12;94258.22;4127693;28;20058;-72
2021/01/12 07:44:59;;;;;;;12.43;7.85;;;;;;;1.15;82.88;94264.31;4128470;28;20325;-73
2021/01/12 07:47:05;;;;;;;27.98;17.20;;;;;;;1.18;83.00;94264.09;4128485;28;20069;-71
2021/01/12 07:49:07;;;;;;;11.23;7.40;;;;;;;1.06;82.75;94251.28;4139700;28;20049;-74
2021/01/12 07:51:10;;;;;;;9.60;7.18;;;;;;;1.04;82.38;94251.38;4130720;28;20057;-73
2021/01/12 07:53:13;;;;;;;11.15;7.43;;;;;;;0.94;83.38;94248.66;4111707;28;20051;-70
2021/01/12 07:55:17;;;;;;;10.05;7.50;;;;;;;0.95;83.64;94240.00;4121097;28;20054;-72
2021/01/12 07:57:18;;;;;;;10.52;7.72;;;;;;;1.09;83.56;94230.41;4127674;28;20642;-71
2021/01/12 07:59:21;;;;;;;20.40;14.57;;;;;;;1.13;84.10;94242.16;4129104;28;20429;-71
2021/01/12 08:01:26;;;;;;;11.82;8.32;;;;;;;1.18;83.61;94234.88;4124841;28;20510;-72
2021/01/12 08:03:28;;;;;;;10.85;7.78;;;;;;;1.27;83.03;94236.78;4113609;28;20054;-72
2021/01/12 08:05:29;;;;;;;10.73;7.45;;;;;;;1.22;83.05;94249.19;4121162;28;20720;-73
2021/01/12 08:07:32;;;;;;;13.15;8.18;;;;;;;1.13;82.47;94242.16;4111909;28;20053;-72
2021/01/12 08:09:37;;;;;;;13.30;8.20;;;;;;;1.07;83.09;94240.84;4111584;28;20615;-73
2021/01/12 08:11:39;;;;;;;12.77;9.20;;;;;;;0.98;83.42;94244.91;4127317;28;20049;-72
2021/01/12 08:13:40;;;;;;;14.60;9.48;;;;;;;0.82;84.03;94247.78;4127888;28;20053;-72
2021/01/12 08:15:43;;;;;;;12.65;8.73;;;;;;;0.81;84.20;94245.31;4123732;28;20042;-71
2021/01/12 08:17:46;;;;;;;12.00;8.65;;;;;;;0.92;83.69;94234.22;4134511;28;20078;-73
2021/01/12 08:19:48;;;;;;;16.95;10.43;;;;;;;1.00;83.71;94227.56;4126409;28;20100;-72
2021/01/12 08:21:50;;;;;;;15.15;9.93;;;;;;;1.11;83.38;94218.22;4141321;28;20049;-72
2021/01/12 08:24:00;;;;;;;13.02;9.05;;;;;;;1.25;83.50;94225.75;4137888;28;20058;-71
2021/01/12 08:26:12;;;;;;;20.80;10.88;;;;;;;1.29;82.90;94216.88;4129270;28;20515;-74
2021/01/12 08:28:14;;;;;;;18.17;12.25;;;;;;;0.93;83.31;94210.91;4110325;28;20160;-74
2021/01/12 08:30:18;;;;;;;17.00;11.95;;;;;;;0.95;83.88;94221.13;4123345;28;20590;-74
2021/01/12 08:32:22;;;;;;;18.13;14.05;;;;;;;0.96;83.77;94209.84;4138435;28;20054;-73
2021/01/12 08:34:26;;;;;;;16.73;12.00;;;;;;;0.90;83.24;94208.53;4129567;28;20412;-73
2021/01/12 08:36:30;;;;;;;23.42;12.23;;;;;;;0.88;83.62;94214.75;4129789;28;20485;-73
2021/01/12 08:38:32;;;;;;;16.27;10.93;;;;;;;0.74;83.26;94206.28;4131391;28;20086;-86
2021/01/12 08:40:34;;;;;;;18.73;12.18;;;;;;;0.77;84.40;94210.38;4117500;28;20054;-87
2021/01/12 08:42:39;;;;;;;16.23;11.65;;;;;;;0.88;84.78;94207.81;4129573;28;20129;-71
2021/01/12 08:44:41;;;;;;;15.70;11.05;;;;;;;0.91;83.92;94217.13;4132842;28;20080;-87
2021/01/12 08:46:43;;;;;;;14.60;9.90;;;;;;;0.96;83.36;94207.28;4144920;28;20046;-84
2021/01/12 08:48:49;;;;;;;14.95;10.63;;;;;;;0.97;83.30;94198.63;4143343;28;20054;-84
2021/01/12 08:50:52;;;;;;;16.95;12.57;;;;;;;0.94;83.92;94181.59;4129462;28;20058;-71
2021/01/12 08:52:53;;;;;;;19.13;12.38;;;;;;;1.03;84.44;94195.56;4125865;28;20046;-73
2021/01/12 08:54:55;;;;;;;18.40;12.50;;;;;;;1.14;83.06;94197.34;4116802;28;20066;-73
2021/01/12 08:57:00;;;;;;;18.05;12.70;;;;;;;1.26;83.02;94199.00;4126957;28;20058;-70
2021/01/12 08:59:11;;;;;;;18.98;12.63;;;;;;;1.28;82.30;94193.75;4127900;28;20054;-72
2021/01/12 09:01:14;;;;;;;19.80;12.90;;;;;;;1.32;82.33;94187.41;4115206;28;20102;-72
2021/01/12 09:03:19;;;;;;;23.45;13.07;;;;;;;1.45;82.72;94184.72;4131258;28;20046;-72
2021/01/12 09:05:21;;;;;;;14.80;10.05;;;;;;;1.30;81.59;94173.81;4128945;28;20054;-73
2021/01/12 09:07:22;;;;;;;16.77;10.02;;;;;;;1.17;82.44;94179.06;4135641;28;20054;-84
2021/01/12 09:09:23;;;;;;;19.63;10.73;;;;;;;1.12;82.06;94179.41;4118824;28;20130;-84
2021/01/12 09:11:46;;;;;;;18.15;11.48;;;;;;;1.09;82.51;94166.72;4108611;28;20051;-85
2021/01/12 09:13:49;;;;;;;17.20;11.65;;;;;;;1.11;82.20;94166.63;4134919;28;20145;-84
2021/01/12 09:15:51;;;;;;;18.65;11.00;;;;;;;1.18;83.03;94166.06;4145914;28;20045;-85
2021/01/12 09:18:15;;;;;;;14.93;9.77;;;;;;;1.26;82.29;94159.50;4152085;28;20053;-87
2021/01/12 09:20:23;;;;;;;16.83;10.93;;;;;;;1.32;81.94;94161.59;4146633;28;20050;-70
2021/01/12 09:22:29;;;;;;;18.05;10.45;;;;;;;1.40;82.18;94156.69;4134349;28;20524;-72
2021/01/12 09:24:30;;;;;;;17.25;10.70;;;;;;;1.50;82.18;94156.78;4131578;28;20105;-74
2021/01/12 09:26:34;;;;;;;14.88;9.95;;;;;;;1.28;81.58;94142.13;4131343;28;20462;-74
2021/01/12 09:28:36;;;;;;;16.27;9.67;;;;;;;0.98;82.93;94152.06;4130977;28;20533;-73
2021/01/12 09:30:39;;;;;;;14.25;10.25;;;;;;;0.95;83.12;94149.72;4113221;28;20137;-70
2021/01/12 09:32:40;;;;;;;16.33;11.05;;;;;;;0.97;83.39;94139.28;4143083;28;20069;-73
2021/01/12 09:34:42;;;;;;;22.73;11.85;;;;;;;0.55;84.29;94136.38;4143206;28;20426;-72
2021/01/12 09:36:44;;;;;;;21.67;12.70;;;;;;;0.33;86.08;94135.34;4139390;28;20141;-71
2021/01/12 09:38:53;;;;;;;21.52;13.05;;;;;;;0.39;86.04;94131.53;4118544;28;20479;-72
2021/01/12 09:40:54;;;;;;;24.98;14.02;;;;;;;0.39;86.14;94131.53;4120537;28;20094;-73
2021/01/12 09:42:57;;;;;;;23.05;13.15;;;;;;;0.45;86.30;94130.22;4128608;28;20050;-72
2021/01/12 09:44:58;;;;;;;18.30;10.95;;;;;;;0.52;85.58;94121.16;4128098;28;20128;-72
2021/01/12 09:47:02;;;;;;;18.40;12.82;;;;;;;0.70;85.57;94127.50;4117392;28;20491;-72
2021/01/12 09:49:04;;;;;;;15.88;10.75;;;;;;;0.82;84.06;94126.59;4127696;28;20054;-73
2021/01/12 09:51:06;;;;;;;16.80;10.98;;;;;;;0.85;83.71;94117.00;4134608;28;20054;-75
2021/01/12 09:53:07;;;;;;;17.65;11.70;;;;;;;0.74;84.57;94104.91;4117471;28;20135;-72
2021/01/12 09:55:09;;;;;;;13.82;10.25;;;;;;;0.77;84.02;94104.66;4129211;28;20058;-74
2021/01/12 09:57:10;;;;;;;14.77;11.27;;;;;;;0.72;84.30;94099.84;4131365;28;20561;-73
2021/01/12 09:59:11;;;;;;;15.85;11.70;;;;;;;0.66;84.49;94104.66;4131692;28;20505;-86
2021/01/12 10:01:13;;;;;;;21.17;14.15;;;;;;;0.64;84.87;94091.88;4134614;28;20054;-85